Time;durP1;ratioP1;P1;durP2;ratioP2;P2;SDS_P1;SDS_P2;PMS_P1;PMS_P2;Temp;Humidity;BMP_temperature;BMP_pressure;BME280_temperature;BME280_humidity;BME280_pressure;Samples;Min_cycle;Max_cycle;Signal;HPM_P1;HPM_P2
2023/09/16 00:00:14;;;;;;;23.38;16.40;;;;;;;;;;4388535;32;318957;-92
2023/09/16 00:02:41;;;;;;;23.25;17.35;;;;;;;;;;4417641;32;318722;-88
2023/09/16 00:05:12;;;;;;;20.85;17.23;;;;;;;;;;4410220;32;319423;-83
2023/09/16 00:07:40;;;;;;;25.17;16.95;;;;;;;;;;4415258;32;318608;-84
2023/09/16 00:10:08;;;;;;;21.42;16.95;;;;;;;;;;4395992;32;319315;-84
2023/09/16 00:12:34;;;;;;;18.83;16.85;;;;;;;;;;4409702;32;318981;-83
2023/09/16 00:15:01;;;;;;;21.93;16.37;;;;;;;;;;4404391;32;333631;-84
2023/09/16 00:17:28;;;;;;;19.02;16.45;;;;;;;;;;4415540;32;319546;-87
2023/09/16 00:19:54;;;;;;;19.05;17.05;;;;;;;;;;4401604;32;319616;-83
2023/09/16 00:22:21;;;;;;;18.98;17.20;;;;;;;;;;4399826;32;327572;-82
2023/09/16 00:24:49;;;;;;;23.90;17.62;;;;;;;;;;4409582;32;319429;-84
2023/09/16 00:27:18;;;;;;;17.98;15.90;;;;;;;;;;4393487;32;419133;-84
2023/09/16 00:29:44;;;;;;;20.33;17.95;;;;;;;;;;4404730;32;319217;-82
2023/09/16 00:32:11;;;;;;;23.90;16.75;;;;;;;;;;4390077;32;319677;-83
2023/09/16 00:34:38;;;;;;;20.95;17.87;;;;;;;;;;4406244;32;319820;-83
2023/09/16 00:37:05;;;;;;;21.45;18.15;;;;;;;;;;4396845;32;319358;-83
2023/09/16 00:39:36;;;;;;;22.30;17.75;;;;;;;;;;4409288;32;319760;-84
2023/09/16 00:42:04;;;;;;;32.60;17.45;;;;;;;;;;4390034;32;319343;-83
2023/09/16 00:44:31;;;;;;;26.62;18.55;;;;;;;;;;4406624;32;318955;-89
2023/09/16 00:46:58;;;;;;;28.70;18.58;;;;;;;;;;4399108;32;318873;-88
2023/09/16 00:49:28;;;;;;;23.92;19.23;;;;;;;;;;4408520;32;318845;-89
2023/09/16 00:51:56;;;;;;;21.73;17.58;;;;;;;;;;4399266;32;319935;-88
2023/09/16 00:54:23;;;;;;;22.10;17.25;;;;;;;;;;4393081;32;319005;-84
2023/09/16 00:56:51;;;;;;;21.02;17.75;;;;;;;;;;4377134;32;319753;-85
2023/09/16 00:59:22;;;;;;;21.23;18.25;;;;;;;;;;4408325;32;319589;-87
2023/09/16 01:01:50;;;;;;;31.12;21.52;;;;;;;;;;4406296;32;319299;-84
2023/09/16 01:04:17;;;;;;;20.45;18.02;;;;;;;;;;4387670;32;418268;-83
2023/09/16 01:06:44;;;;;;;21.48;18.23;;;;;;;;;;4408067;32;319013;-83
2023/09/16 01:09:11;;;;;;;19.50;17.23;;;;;;;;;;4397277;32;319983;-83
2023/09/16 01:11:38;;;;;;;21.40;18.80;;;;;;;;;;4406500;32;319043;-83
2023/09/16 01:14:05;;;;;;;21.55;17.90;;;;;;;;;;4385808;32;319501;-83
2023/09/16 01:16:39;;;;;;;21.50;18.90;;;;;;;;;;4408334;32;319024;-83
2023/09/16 01:19:17;;;;;;;22.05;19.58;;;;;;;;;;4398362;32;319514;-82
2023/09/16 01:21:44;;;;;;;23.60;19.23;;;;;;;;;;4406464;32;319549;-82
2023/09/16 01:24:16;;;;;;;23.60;20.37;;;;;;;;;;4385597;32;319043;-86
2023/09/16 01:26:44;;;;;;;29.85;19.40;;;;;;;;;;4404830;32;319026;-88
2023/09/16 01:29:11;;;;;;;22.05;19.05;;;;;;;;;;4394638;32;337860;-88
2023/09/16 01:31:39;;;;;;;23.30;18.73;;;;;;;;;;4408417;32;319180;-90
2023/09/16 01:34:13;;;;;;;21.70;19.25;;;;;;;;;;4388395;32;318941;-83
2023/09/16 01:36:42;;;;;;;21.45;18.00;;;;;;;;;;4407230;32;319319;-85
2023/09/16 01:39:09;;;;;;;24.98;18.30;;;;;;;;;;4398541;32;319651;-84
2023/09/16 01:41:38;;;;;;;24.92;18.40;;;;;;;;;;4404691;32;319746;-87
2023/09/16 01:44:07;;;;;;;19.12;17.05;;;;;;;;;;4387978;32;319038;-83
2023/09/16 01:46:33;;;;;;;20.23;17.17;;;;;;;;;;4403995;32;319807;-83
2023/09/16 01:49:00;;;;;;;23.15;18.55;;;;;;;;;;4397166;32;340024;-84
2023/09/16 01:51:27;;;;;;;27.25;18.20;;;;;;;;;;4405106;32;318592;-83
2023/09/16 01:53:54;;;;;;;21.73;18.33;;;;;;;;;;4396183;32;363023;-84
2023/09/16 01:56:21;;;;;;;22.45;18.85;;;;;;;;;;4400846;32;319094;-88
2023/09/16 01:58:48;;;;;;;19.90;17.80;;;;;;;;;;4407747;32;318923;-89
2023/09/16 02:01:17;;;;;;;19.77;17.02;;;;;;;;;;4393438;32;417092;-89
2023/09/16 02:03:43;;;;;;;22.77;17.33;;;;;;;;;;4406436;32;319608;-86
2023/09/16 02:06:10;;;;;;;19.23;17.30;;;;;;;;;;4386905;32;319602;-87
2023/09/16 02:08:37;;;;;;;18.33;16.40;;;;;;;;;;4383558;32;319381;-88
2023/09/16 02:11:04;;;;;;;21.25;16.77;;;;;;;;;;4392901;32;324915;-87
2023/09/16 02:13:32;;;;;;;17.85;16.15;;;;;;;;;;4397763;32;319333;-90
2023/09/16 02:15:59;;;;;;;18.58;16.37;;;;;;;;;;4391761;32;319417;-84
2023/09/16 02:18:27;;;;;;;18.77;16.02;;;;;;;;;;4402166;32;319545;-85
2023/09/16 02:20:54;;;;;;;19.75;16.83;;;;;;;;;;4394644;32;319684;-85
2023/09/16 02:23:21;;;;;;;19.77;17.35;;;;;;;;;;4403984;32;347411;-89
2023/09/16 02:25:48;;;;;;;19.92;15.93;;;;;;;;;;4406772;32;319113;-85
2023/09/16 02:28:15;;;;;;;19.52;17.52;;;;;;;;;;4385811;32;419794;-87
2023/09/16 02:30:42;;;;;;;20.83;17.73;;;;;;;;;;4404799;32;319492;-87
2023/09/16 02:33:08;;;;;;;18.55;16.70;;;;;;;;;;4381317;32;319295;-85
2023/09/16 02:35:39;;;;;;;24.67;17.15;;;;;;;;;;4407243;32;319543;-87
2023/09/16 02:38:06;;;;;;;18.67;16.75;;;;;;;;;;4386830;32;319498;-88
2023/09/16 02:40:33;;;;;;;18.25;16.30;;;;;;;;;;4406916;32;318906;-88
2023/09/16 02:43:00;;;;;;;18.23;16.30;;;;;;;;;;4373931;32;319209;-85
2023/09/16 02:45:26;;;;;;;17.62;15.75;;;;;;;;;;4397741;32;319181;-86
2023/09/16 02:47:53;;;;;;;23.00;17.73;;;;;;;;;;4377888;32;357499;-87
2023/09/16 02:50:20;;;;;;;21.27;17.33;;;;;;;;;;4406962;32;318845;-85
2023/09/16 02:52:48;;;;;;;17.83;15.93;;;;;;;;;;4405724;32;319540;-85
2023/09/16 02:55:16;;;;;;;18.55;16.60;;;;;;;;;;4382373;32;418591;-89
2023/09/16 02:57:42;;;;;;;21.37;16.95;;;;;;;;;;4403648;32;319270;-90
2023/09/16 03:00:10;;;;;;;20.12;17.92;;;;;;;;;;4373599;32;322825;-84
2023/09/16 03:02:37;;;;;;;24.83;17.95;;;;;;;;;;4393541;32;319200;-83
2023/09/16 03:05:04;;;;;;;19.90;17.87;;;;;;;;;;4387972;32;319252;-84
2023/09/16 03:07:31;;;;;;;23.92;18.10;;;;;;;;;;4385464;32;319537;-86
2023/09/16 03:09:59;;;;;;;22.75;17.60;;;;;;;;;;4390695;32;319411;-90
2023/09/16 03:12:25;;;;;;;21.40;18.25;;;;;;;;;;4389541;32;319384;-84
2023/09/16 03:14:52;;;;;;;19.25;16.60;;;;;;;;;;4378849;32;392560;-85
2023/09/16 03:17:19;;;;;;;21.80;17.10;;;;;;;;;;4382367;32;319440;-84
2023/09/16 03:19:46;;;;;;;20.42;17.02;;;;;;;;;;4405546;32;318947;-84
2023/09/16 03:22:13;;;;;;;18.85;16.90;;;;;;;;;;4362109;32;319457;-84
2023/09/16 03:24:40;;;;;;;21.12;17.60;;;;;;;;;;4402602;32;319727;-87
2023/09/16 03:27:08;;;;;;;19.83;16.90;;;;;;;;;;4388822;32;318908;-84
2023/09/16 03:29:34;;;;;;;19.90;17.35;;;;;;;;;;4405727;32;319009;-84
2023/09/16 03:32:01;;;;;;;17.57;15.77;;;;;;;;;;4392608;32;319623;-80
2023/09/16 03:34:28;;;;;;;22.15;17.30;;;;;;;;;;4392966;32;319637;-84
2023/09/16 03:36:55;;;;;;;19.30;15.73;;;;;;;;;;4383330;32;319611;-85
2023/09/16 03:39:21;;;;;;;19.35;17.05;;;;;;;;;;4382830;32;319401;-85
2023/09/16 03:41:48;;;;;;;23.45;16.55;;;;;;;;;;4390033;32;360625;-86
2023/09/16 03:44:16;;;;;;;18.75;16.83;;;;;;;;;;4365918;32;418621;-87
2023/09/16 03:46:43;;;;;;;20.58;16.05;;;;;;;;;;4393627;32;319055;-86
2023/09/16 03:49:10;;;;;;;19.87;17.73;;;;;;;;;;4375065;32;319510;-86
2023/09/16 03:51:38;;;;;;;21.30;17.65;;;;;;;;;;4395714;32;319774;-85
2023/09/16 03:54:06;;;;;;;21.02;18.60;;;;;;;;;;4395906;32;319417;-85
2023/09/16 03:56:33;;;;;;;22.00;17.40;;;;;;;;;;4406638;32;319498;-85
2023/09/16 03:59:00;;;;;;;20.83;18.10;;;;;;;;;;4394136;32;319442;-85
2023/09/16 04:01:28;;;;;;;25.17;18.40;;;;;;;;;;4403002;32;319177;-87
2023/09/16 04:03:55;;;;;;;20.27;17.80;;;;;;;;;;4396558;32;318666;-86
2023/09/16 04:06:22;;;;;;;20.10;18.10;;;;;;;;;;4408136;32;319388;-85
2023/09/16 04:08:49;;;;;;;24.70;18.20;;;;;;;;;;4407970;32;319792;-86
2023/09/16 04:11:16;;;;;;;17.87;16.08;;;;;;;;;;4386251;32;418448;-86
2023/09/16 04:13:43;;;;;;;20.37;17.10;;;;;;;;;;4408391;32;319097;-86
2023/09/16 04:16:11;;;;;;;24.45;18.35;;;;;;;;;;4396161;32;319550;-86
2023/09/16 04:18:39;;;;;;;22.20;17.52;;;;;;;;;;4407096;32;319290;-84
2023/09/16 04:21:06;;;;;;;22.00;18.50;;;;;;;;;;4388489;32;349793;-86
2023/09/16 04:23:34;;;;;;;24.65;17.77;;;;;;;;;;4407331;32;329052;-85
2023/09/16 04:26:01;;;;;;;23.15;18.27;;;;;;;;;;4396038;32;338150;-86
2023/09/16 04:28:28;;;;;;;25.58;18.52;;;;;;;;;;4409320;32;319509;-87
2023/09/16 04:30:56;;;;;;;19.62;17.50;;;;;;;;;;4398898;32;319234;-87
2023/09/16 04:33:23;;;;;;;24.92;19.20;;;;;;;;;;4399008;32;319515;-87
2023/09/16 04:35:52;;;;;;;25.90;20.23;;;;;;;;;;4398900;32;319347;-86
2023/09/16 04:38:20;;;;;;;23.40;19.85;;;;;;;;;;4409256;32;319075;-86
2023/09/16 04:40:47;;;;;;;23.87;19.37;;;;;;;;;;4408057;32;318665;-89
2023/09/16 04:43:14;;;;;;;24.83;19.48;;;;;;;;;;4386823;32;319428;-86
2023/09/16 04:45:43;;;;;;;31.05;19.85;;;;;;;;;;4407916;32;318794;-85
2023/09/16 04:48:13;;;;;;;20.52;18.55;;;;;;;;;;4390411;32;358184;-85
2023/09/16 04:50:41;;;;;;;22.52;18.75;;;;;;;;;;4390314;32;319724;-86
2023/09/16 04:53:10;;;;;;;23.62;19.55;;;;;;;;;;4375746;32;319666;-86
2023/09/16 04:55:37;;;;;;;23.48;19.73;;;;;;;;;;4408005;32;319459;-85
2023/09/16 04:58:04;;;;;;;24.87;20.05;;;;;;;;;;4396429;32;352724;-88
2023/09/16 05:00:33;;;;;;;23.98;19.90;;;;;;;;;;4407001;32;317803;-88
2023/09/16 05:03:00;;;;;;;27.35;20.05;;;;;;;;;;4379415;32;319291;-84
2023/09/16 05:05:27;;;;;;;26.02;20.92;;;;;;;;;;4399860;32;318830;-86
2023/09/16 05:07:54;;;;;;;28.08;20.40;;;;;;;;;;4396443;32;319135;-89
2023/09/16 05:10:25;;;;;;;29.20;19.73;;;;;;;;;;4405197;32;319420;-87
2023/09/16 05:12:51;;;;;;;20.67;17.75;;;;;;;;;;4374774;32;358290;-86
2023/09/16 05:15:18;;;;;;;23.70;20.60;;;;;;;;;;4380551;32;319774;-87
2023/09/16 05:17:45;;;;;;;23.00;20.05;;;;;;;;;;4389640;32;318745;-88
2023/09/16 05:20:12;;;;;;;22.62;20.25;;;;;;;;;;4381051;32;319837;-86
2023/09/16 05:22:39;;;;;;;24.67;19.17;;;;;;;;;;4390599;32;318335;-88
2023/09/16 05:25:08;;;;;;;23.38;19.42;;;;;;;;;;4372772;32;319228;-88
2023/09/16 05:27:37;;;;;;;24.42;18.87;;;;;;;;;;4393871;32;319657;-85
2023/09/16 05:30:07;;;;;;;28.70;20.20;;;;;;;;;;4380199;32;319175;-85
2023/09/16 05:32:34;;;;;;;21.17;18.67;;;;;;;;;;4394003;32;319640;-85
2023/09/16 05:35:01;;;;;;;32.72;19.40;;;;;;;;;;4392321;32;318883;-84
2023/09/16 05:37:28;;;;;;;28.27;19.77;;;;;;;;;;4401935;32;319946;-86
2023/09/16 05:39:54;;;;;;;24.87;19.45;;;;;;;;;;4395093;32;319457;-86
2023/09/16 05:42:21;;;;;;;25.58;18.50;;;;;;;;;;4404906;32;319134;-85
2023/09/16 05:44:50;;;;;;;22.33;20.17;;;;;;;;;;4406787;32;318574;-88
2023/09/16 05:47:18;;;;;;;24.60;22.00;;;;;;;;;;4384693;32;418959;-86
2023/09/16 05:49:44;;;;;;;24.05;21.52;;;;;;;;;;4407372;32;318705;-86
2023/09/16 05:52:11;;;;;;;23.95;19.75;;;;;;;;;;4383248;32;319314;-86
2023/09/16 05:54:38;;;;;;;20.33;18.30;;;;;;;;;;4403784;32;319337;-86
2023/09/16 05:57:05;;;;;;;31.42;20.62;;;;;;;;;;4383325;32;319382;-86
2023/09/16 05:59:31;;;;;;;21.58;19.23;;;;;;;;;;4404779;32;318595;-86
2023/09/16 06:02:00;;;;;;;27.73;18.37;;;;;;;;;;4383361;32;319115;-86
2023/09/16 06:04:28;;;;;;;22.85;18.75;;;;;;;;;;4405439;32;324893;-85
2023/09/16 06:06:54;;;;;;;22.00;17.73;;;;;;;;;;4394242;32;347800;-85
2023/09/16 06:09:21;;;;;;;21.33;18.40;;;;;;;;;;4396556;32;319073;-86
2023/09/16 06:11:48;;;;;;;26.35;18.08;;;;;;;;;;4404187;32;319124;-87
2023/09/16 06:14:15;;;;;;;23.20;19.87;;;;;;;;;;4393209;32;419978;-87
2023/09/16 06:16:42;;;;;;;21.05;18.50;;;;;;;;;;4405317;32;319127;-82
2023/09/16 06:19:10;;;;;;;28.60;21.15;;;;;;;;;;4366182;32;319388;-87
2023/09/16 06:21:37;;;;;;;39.13;20.77;;;;;;;;;;4402926;32;318458;-84
2023/09/16 06:24:04;;;;;;;31.48;21.98;;;;;;;;;;4395000;32;319200;-88
2023/09/16 06:26:31;;;;;;;30.17;19.27;;;;;;;;;;4405304;32;318458;-86
2023/09/16 06:28:58;;;;;;;26.12;19.73;;;;;;;;;;4394512;32;319280;-83
2023/09/16 06:31:25;;;;;;;26.95;20.83;;;;;;;;;;4401312;32;319986;-85
2023/09/16 06:33:52;;;;;;;24.67;20.37;;;;;;;;;;4394123;32;326950;-82
2023/09/16 06:36:20;;;;;;;26.08;20.42;;;;;;;;;;4391690;32;319199;-88
2023/09/16 06:38:46;;;;;;;24.12;19.10;;;;;;;;;;4403815;32;318922;-86
2023/09/16 06:41:13;;;;;;;25.67;18.90;;;;;;;;;;4358764;32;319410;-85
2023/09/16 06:43:40;;;;;;;24.92;20.42;;;;;;;;;;4389967;32;318745;-85
2023/09/16 06:46:07;;;;;;;24.95;21.17;;;;;;;;;;4378081;32;319062;-86
2023/09/16 06:48:33;;;;;;;22.90;19.90;;;;;;;;;;4388049;32;319421;-84
2023/09/16 06:51:00;;;;;;;26.87;21.42;;;;;;;;;;4379290;32;318656;-85
2023/09/16 06:53:29;;;;;;;25.88;20.95;;;;;;;;;;4397815;32;319615;-85
2023/09/16 06:55:56;;;;;;;26.00;21.50;;;;;;;;;;4394459;32;319142;-85
2023/09/16 06:58:22;;;;;;;27.77;21.10;;;;;;;;;;4404465;32;318574;-83
2023/09/16 07:00:49;;;;;;;23.75;20.30;;;;;;;;;;4400695;32;319085;-82
2023/09/16 07:03:16;;;;;;;21.75;19.17;;;;;;;;;;4381538;32;417414;-85
2023/09/16 07:05:46;;;;;;;23.55;19.23;;;;;;;;;;4406096;32;319495;-84
2023/09/16 07:08:13;;;;;;;28.00;21.80;;;;;;;;;;4392290;32;319529;-86
2023/09/16 07:10:41;;;;;;;27.77;22.70;;;;;;;;;;4401834;32;319366;-87
2023/09/16 07:13:08;;;;;;;23.92;21.10;;;;;;;;;;4397505;32;319312;-86
2023/09/16 07:15:35;;;;;;;34.30;23.52;;;;;;;;;;4403619;32;318800;-89
2023/09/16 07:18:02;;;;;;;26.20;22.73;;;;;;;;;;4392620;32;319208;-89
2023/09/16 07:20:28;;;;;;;28.87;24.25;;;;;;;;;;4406579;32;319195;-87
2023/09/16 07:22:56;;;;;;;28.55;24.30;;;;;;;;;;4393048;32;319214;-89
2023/09/16 07:25:22;;;;;;;31.40;21.85;;;;;;;;;;4399655;32;346643;-87
2023/09/16 07:27:51;;;;;;;24.15;21.37;;;;;;;;;;4406457;32;319905;-88
2023/09/16 07:30:17;;;;;;;27.62;19.37;;;;;;;;;;4391066;32;420487;-85
2023/09/16 07:32:44;;;;;;;22.50;18.00;;;;;;;;;;4407471;32;319194;-87
2023/09/16 07:35:11;;;;;;;30.52;21.30;;;;;;;;;;4387174;32;319393;-87
2023/09/16 07:37:38;;;;;;;25.37;19.48;;;;;;;;;;4403519;32;339429;-88
2023/09/16 07:40:06;;;;;;;28.50;20.42;;;;;;;;;;4397767;32;319012;-86
2023/09/16 07:42:35;;;;;;;23.87;21.35;;;;;;;;;;4405072;32;319158;-86
2023/09/16 07:45:03;;;;;;;27.60;23.12;;;;;;;;;;4401310;32;318701;-87
2023/09/16 07:47:30;;;;;;;31.00;22.65;;;;;;;;;;4402486;32;319339;-88
2023/09/16 07:49:57;;;;;;;22.80;19.92;;;;;;;;;;4396279;32;319580;-90
2023/09/16 07:52:24;;;;;;;29.05;21.37;;;;;;;;;;4404204;32;319325;-82
2023/09/16 07:54:51;;;;;;;31.67;20.98;;;;;;;;;;4397024;32;319554;-83
2023/09/16 07:57:17;;;;;;;22.05;18.95;;;;;;;;;;4415269;32;318246;-84
2023/09/16 07:59:44;;;;;;;21.10;17.12;;;;;;;;;;4412524;32;319574;-84
2023/09/16 08:02:12;;;;;;;19.75;17.70;;;;;;;;;;4396850;32;319243;-82
2023/09/16 08:04:39;;;;;;;23.20;18.15;;;;;;;;;;4406747;32;319057;-88
2023/09/16 08:07:06;;;;;;;21.85;18.80;;;;;;;;;;4381674;32;319134;-85
2023/09/16 08:09:33;;;;;;;23.15;18.55;;;;;;;;;;4400468;32;340320;-92
2023/09/16 08:12:00;;;;;;;26.15;19.20;;;;;;;;;;4406919;32;319488;-84
2023/09/16 08:14:27;;;;;;;26.50;20.08;;;;;;;;;;4410147;32;318526;-84
2023/09/16 08:16:57;;;;;;;18.80;15.98;;;;;;;;;;4397067;32;319112;-85
2023/09/16 08:19:25;;;;;;;19.75;16.45;;;;;;;;;;4398294;32;319143;-87
2023/09/16 08:21:52;;;;;;;20.27;15.93;;;;;;;;;;4392946;32;387908;-89
2023/09/16 08:24:18;;;;;;;17.02;14.15;;;;;;;;;;4407249;32;319090;-90
2023/09/16 08:26:45;;;;;;;23.62;18.05;;;;;;;;;;4408275;32;319537;-91
2023/09/16 08:29:12;;;;;;;22.58;15.20;;;;;;;;;;4391559;32;319140;-85
2023/09/16 08:31:38;;;;;;;18.45;16.52;;;;;;;;;;4409707;32;319375;-87
2023/09/16 08:34:05;;;;;;;16.98;13.95;;;;;;;;;;4398022;32;319107;-87
2023/09/16 08:36:33;;;;;;;14.15;11.88;;;;;;;;;;4407443;32;319633;-86
2023/09/16 08:39:03;;;;;;;13.00;11.48;;;;;;;;;;4395009;32;319302;-94
2023/09/16 08:41:38;;;;;;;14.85;11.10;;;;;;;;;;4408717;32;334540;-89
2023/09/16 08:44:09;;;;;;;13.95;12.55;;;;;;;;;;4395771;32;318829;-88
2023/09/16 08:46:41;;;;;;;12.13;10.70;;;;;;;;;;4406483;32;319320;-88
2023/09/16 08:49:12;;;;;;;15.30;12.80;;;;;;;;;;4365067;32;328138;-92
2023/09/16 08:51:44;;;;;;;14.35;12.95;;;;;;;;;;4405305;32;318574;-89
2023/09/16 08:54:12;;;;;;;13.75;11.80;;;;;;;;;;4396246;32;320056;-89
2023/09/16 08:56:40;;;;;;;13.38;11.65;;;;;;;;;;4400457;32;319253;-91
2023/09/16 08:59:06;;;;;;;12.50;11.20;;;;;;;;;;4380037;32;318719;-95
2023/09/16 09:01:34;;;;;;;19.92;12.32;;;;;;;;;;4387282;32;319527;-89
2023/09/16 09:04:00;;;;;;;16.35;12.10;;;;;;;;;;4381795;32;319521;-90
2023/09/16 09:06:29;;;;;;;13.68;9.57;;;;;;;;;;4396564;32;319204;-90
2023/09/16 09:08:57;;;;;;;15.77;10.93;;;;;;;;;;4397882;32;318486;-91
2023/09/16 09:11:31;;;;;;;10.80;9.52;;;;;;;;;;4403148;32;319460;-91
2023/09/16 09:14:00;;;;;;;11.43;10.32;;;;;;;;;;4403001;32;318632;-89
2023/09/16 09:16:29;;;;;;;12.70;9.35;;;;;;;;;;4406918;32;318707;-91
2023/09/16 09:18:57;;;;;;;10.80;8.05;;;;;;;;;;4392481;32;345129;-88
2023/09/16 09:21:25;;;;;;;14.52;8.10;;;;;;;;;;4398655;32;318392;-91
2023/09/16 09:23:52;;;;;;;8.45;7.43;;;;;;;;;;4396750;32;350474;-90
2023/09/16 09:26:22;;;;;;;11.20;5.65;;;;;;;;;;4410162;32;317268;-85
2023/09/16 09:28:49;;;;;;;12.82;7.43;;;;;;;;;;4406330;32;318217;-90
2023/09/16 09:31:16;;;;;;;9.20;6.03;;;;;;;;;;4364977;32;417276;-89
2023/09/16 09:33:44;;;;;;;6.37;4.68;;;;;;;;;;4407200;32;317546;-90
2023/09/16 09:36:15;;;;;;;9.63;4.68;;;;;;;;;;4397951;32;317074;-91
2023/09/16 09:38:43;;;;;;;11.27;5.40;;;;;;;;;;4408171;32;316530;-90
2023/09/16 09:41:11;;;;;;;9.18;5.68;;;;;;;;;;4365492;32;317645;-89
2023/09/16 09:43:39;;;;;;;10.60;6.25;;;;;;;;;;4408409;32;317448;-89
2023/09/16 09:46:05;;;;;;;7.62;6.50;;;;;;;;;;4397812;32;317731;-90
2023/09/16 09:48:35;;;;;;;11.90;7.00;;;;;;;;;;4405426;32;317083;-90
2023/09/16 09:51:02;;;;;;;6.75;6.05;;;;;;;;;;4394067;32;318074;-90
2023/09/16 09:53:30;;;;;;;8.63;6.40;;;;;;;;;;4397839;32;317254;-90
2023/09/16 09:55:57;;;;;;;7.93;6.30;;;;;;;;;;4384658;32;317345;-88
2023/09/16 09:58:24;;;;;;;8.73;5.45;;;;;;;;;;4387395;32;316438;-87
2023/09/16 10:00:52;;;;;;;9.38;5.80;;;;;;;;;;4392097;32;317012;-87
2023/09/16 10:03:23;;;;;;;8.50;5.85;;;;;;;;;;4399262;32;317042;-87
2023/09/16 10:05:50;;;;;;;7.60;6.80;;;;;;;;;;4406952;32;317141;-89
2023/09/16 10:08:16;;;;;;;10.98;6.43;;;;;;;;;;4381281;32;416494;-87
2023/09/16 10:10:47;;;;;;;5.85;5.25;;;;;;;;;;4402787;32;317750;-88
2023/09/16 10:13:14;;;;;;;7.47;6.68;;;;;;;;;;4375662;32;317233;-84
2023/09/16 10:15:40;;;;;;;9.52;6.50;;;;;;;;;;4392607;32;317056;-87
2023/09/16 10:18:09;;;;;;;10.18;5.85;;;;;;;;;;4384521;32;317183;-92
2023/09/16 10:20:38;;;;;;;10.75;6.22;;;;;;;;;;4404825;32;318273;-86
2023/09/16 10:23:05;;;;;;;7.25;6.07;;;;;;;;;;4388150;32;319088;-88
2023/09/16 10:25:33;;;;;;;9.13;5.95;;;;;;;;;;4404518;32;316703;-89
2023/09/16 10:28:02;;;;;;;19.92;7.57;;;;;;;;;;4396000;32;317133;-87
2023/09/16 10:30:30;;;;;;;11.57;8.38;;;;;;;;;;4412351;32;318149;-86
2023/09/16 10:32:59;;;;;;;9.40;5.97;;;;;;;;;;4395686;32;318632;-87
2023/09/16 10:35:28;;;;;;;6.45;5.60;;;;;;;;;;4398949;32;354688;-87
2023/09/16 10:37:58;;;;;;;7.75;5.78;;;;;;;;;;4392997;32;317422;-89
2023/09/16 10:40:26;;;;;;;7.15;5.57;;;;;;;;;;4407137;32;317578;-87
2023/09/16 10:42:53;;;;;;;7.10;5.90;;;;;;;;;;4396442;32;358213;-87
2023/09/16 10:45:21;;;;;;;14.82;9.23;;;;;;;;;;4399065;32;317260;-87
2023/09/16 10:47:49;;;;;;;7.62;4.32;;;;;;;;;;4406109;32;317592;-89
2023/09/16 10:50:17;;;;;;;6.72;4.10;;;;;;;;;;4392707;32;414395;-88
2023/09/16 10:52:51;;;;;;;6.22;3.50;;;;;;;;;;4405735;32;317088;-87
2023/09/16 10:55:27;;;;;;;4.03;3.35;;;;;;;;;;4387721;32;416451;-87
2023/09/16 10:57:58;;;;;;;4.28;2.80;;;;;;;;;;4397368;32;317500;-85
2023/09/16 11:00:28;;;;;;;4.20;2.80;;;;;;;;;;4407445;32;317375;-86
2023/09/16 11:02:59;;;;;;;3.50;2.83;;;;;;;;;;4394444;32;318366;-85
2023/09/16 11:05:26;;;;;;;4.22;2.40;;;;;;;;;;4402586;32;317050;-84
2023/09/16 11:07:55;;;;;;;4.82;2.45;;;;;;;;;;4394583;32;316881;-84
2023/09/16 11:10:23;;;;;;;6.35;2.60;;;;;;;;;;4406277;32;317220;-85
2023/09/16 11:12:50;;;;;;;4.18;2.53;;;;;;;;;;4405247;32;317254;-84
2023/09/16 11:15:17;;;;;;;6.07;3.30;;;;;;;;;;4379294;32;416990;-83
2023/09/16 11:17:44;;;;;;;4.82;4.05;;;;;;;;;;4402457;32;356855;-86
2023/09/16 11:20:12;;;;;;;4.93;4.43;;;;;;;;;;4397841;32;317409;-81
2023/09/16 11:22:40;;;;;;;8.98;4.35;;;;;;;;;;4404383;32;317523;-86
2023/09/16 11:25:12;;;;;;;7.78;5.57;;;;;;;;;;4387386;32;316827;-85
2023/09/16 11:27:38;;;;;;;7.80;4.82;;;;;;;;;;4406656;32;316459;-88
2023/09/16 11:30:12;;;;;;;5.68;4.07;;;;;;;;;;4391396;32;316508;-85
2023/09/16 11:32:41;;;;;;;8.02;4.40;;;;;;;;;;4412200;32;207971;-86
2023/09/16 11:35:08;;;;;;;10.80;4.70;;;;;;;;;;4389181;32;316509;-86
2023/09/16 11:37:35;;;;;;;8.07;4.43;;;;;;;;;;4406178;32;318096;-85
2023/09/16 11:40:02;;;;;;;11.75;4.30;;;;;;;;;;4396676;32;324619;-85
2023/09/16 11:42:30;;;;;;;7.68;4.25;;;;;;;;;;4407811;32;318114;-89
2023/09/16 11:44:57;;;;;;;5.57;4.30;;;;;;;;;;4396486;32;316531;-87
2023/09/16 11:47:24;;;;;;;6.75;4.22;;;;;;;;;;4396259;32;342110;-87
2023/09/16 11:49:50;;;;;;;9.48;4.78;;;;;;;;;;4397288;32;317190;-85
2023/09/16 11:52:18;;;;;;;6.68;4.90;;;;;;;;;;4402939;32;317223;-87
2023/09/16 11:54:47;;;;;;;11.68;5.40;;;;;;;;;;4406279;32;317347;-86
2023/09/16 11:57:14;;;;;;;6.45;4.82;;;;;;;;;;4390199;32;318103;-90
2023/09/16 11:59:43;;;;;;;5.70;4.37;;;;;;;;;;4409409;32;316550;-85
2023/09/16 12:02:11;;;;;;;8.77;5.10;;;;;;;;;;4398856;32;341007;-88
2023/09/16 12:04:39;;;;;;;8.77;5.37;;;;;;;;;;4406307;32;333935;-87
2023/09/16 12:07:06;;;;;;;7.72;5.07;;;;;;;;;;4392378;32;317180;-88
2023/09/16 12:09:33;;;;;;;8.02;5.60;;;;;;;;;;4410088;32;316589;-85
2023/09/16 12:12:00;;;;;;;8.02;6.10;;;;;;;;;;4393919;32;317647;-85
2023/09/16 12:14:29;;;;;;;10.43;6.20;;;;;;;;;;4410319;32;316473;-85
2023/09/16 12:16:59;;;;;;;9.68;6.97;;;;;;;;;;4399640;32;318441;-87
2023/09/16 12:19:26;;;;;;;7.30;5.95;;;;;;;;;;4407623;32;317472;-87
2023/09/16 12:21:54;;;;;;;9.60;6.93;;;;;;;;;;4399943;32;317022;-88
2023/09/16 12:24:22;;;;;;;8.48;6.00;;;;;;;;;;4408846;32;317574;-87
2023/09/16 12:26:50;;;;;;;9.00;6.28;;;;;;;;;;4408376;32;339626;-90
2023/09/16 12:29:17;;;;;;;11.48;7.07;;;;;;;;;;4369460;32;418691;-87
2023/09/16 12:31:44;;;;;;;9.25;6.53;;;;;;;;;;4410602;32;317636;-87
2023/09/16 12:34:16;;;;;;;8.43;6.47;;;;;;;;;;4400160;32;317319;-88
2023/09/16 12:36:49;;;;;;;8.82;6.82;;;;;;;;;;4408744;32;316878;-87
2023/09/16 12:39:16;;;;;;;9.57;7.05;;;;;;;;;;4389610;32;416659;-87
2023/09/16 12:41:46;;;;;;;9.15;7.37;;;;;;;;;;4408864;32;317181;-87
2023/09/16 12:44:13;;;;;;;10.40;6.72;;;;;;;;;;4399588;32;317408;-86
2023/09/16 12:46:40;;;;;;;8.23;6.35;;;;;;;;;;4407755;32;318253;-89
2023/09/16 12:49:07;;;;;;;7.22;6.28;;;;;;;;;;4391740;32;329892;-88
2023/09/16 12:51:38;;;;;;;10.68;7.62;;;;;;;;;;4404519;32;317194;-89
2023/09/16 12:54:06;;;;;;;11.18;7.47;;;;;;;;;;4398550;32;317839;-88
2023/09/16 12:56:36;;;;;;;12.55;7.90;;;;;;;;;;4406443;32;343586;-88
2023/09/16 12:59:03;;;;;;;12.90;7.68;;;;;;;;;;4397351;32;318027;-86
2023/09/16 13:01:30;;;;;;;8.82;7.07;;;;;;;;;;4406104;32;210015;-88
2023/09/16 13:03:59;;;;;;;10.20;6.72;;;;;;;;;;4393159;32;332057;-88
2023/09/16 13:06:26;;;;;;;7.45;6.30;;;;;;;;;;4409000;32;317750;-89
2023/09/16 13:08:55;;;;;;;9.30;7.57;;;;;;;;;;4397293;32;316774;-85
2023/09/16 13:11:22;;;;;;;9.77;6.50;;;;;;;;;;4395923;32;350272;-87
2023/09/16 13:13:52;;;;;;;8.63;6.47;;;;;;;;;;4408193;32;317872;-87
2023/09/16 13:16:21;;;;;;;11.02;6.93;;;;;;;;;;4394844;32;416640;-87
2023/09/16 13:18:47;;;;;;;8.65;7.32;;;;;;;;;;4405533;32;318025;-85
2023/09/16 13:21:14;;;;;;;10.05;6.68;;;;;;;;;;4386242;32;354085;-87
2023/09/16 13:23:49;;;;;;;16.65;8.05;;;;;;;;;;4405454;32;317703;-88
2023/09/16 13:26:17;;;;;;;10.13;6.90;;;;;;;;;;4393687;32;354716;-87
2023/09/16 13:28:54;;;;;;;11.48;6.97;;;;;;;;;;4407564;32;318578;-88
2023/09/16 13:31:22;;;;;;;14.18;7.12;;;;;;;;;;4386499;32;419002;-87
2023/09/16 13:33:53;;;;;;;11.38;7.65;;;;;;;;;;4406854;32;317661;-88
2023/09/16 13:36:21;;;;;;;12.65;7.15;;;;;;;;;;4392159;32;417841;-89
2023/09/16 13:38:48;;;;;;;9.02;6.75;;;;;;;;;;4408464;32;317859;-87
2023/09/16 13:41:15;;;;;;;13.35;7.12;;;;;;;;;;4390408;32;317366;-85
2023/09/16 13:43:43;;;;;;;12.27;6.40;;;;;;;;;;4403870;32;317865;-86
2023/09/16 13:46:09;;;;;;;11.43;6.22;;;;;;;;;;4396531;32;318852;-86
2023/09/16 13:48:36;;;;;;;12.27;6.62;;;;;;;;;;4405159;32;356084;-86
2023/09/16 13:51:03;;;;;;;9.13;6.82;;;;;;;;;;4384822;32;318737;-89
2023/09/16 13:53:31;;;;;;;10.77;6.40;;;;;;;;;;4393394;32;317184;-86
2023/09/16 13:55:57;;;;;;;11.55;7.07;;;;;;;;;;4396163;32;318371;-84
2023/09/16 13:58:26;;;;;;;10.18;7.12;;;;;;;;;;4404131;32;317940;-87
2023/09/16 14:00:54;;;;;;;8.30;7.18;;;;;;;;;;4395795;32;318772;-86
2023/09/16 14:03:21;;;;;;;14.35;7.00;;;;;;;;;;4402674;32;317237;-86
2023/09/16 14:05:47;;;;;;;9.85;6.25;;;;;;;;;;4405104;32;318463;-86
2023/09/16 14:08:14;;;;;;;9.68;7.18;;;;;;;;;;4371368;32;319089;-86
2023/09/16 14:10:41;;;;;;;10.43;6.30;;;;;;;;;;4395172;32;317242;-86
2023/09/16 14:13:09;;;;;;;17.07;7.30;;;;;;;;;;4372134;32;317894;-89